Time;durP1;ratioP1;P1;durP2;ratioP2;P2;SDS_P1;SDS_P2;PMS_P1;PMS_P2;Temp;Humidity;BMP_temperature;BMP_pressure;BME280_temperature;BME280_humidity;BME280_pressure;Samples;Min_cycle;Max_cycle;Signal;HPM_P1;HPM_P2
2023/08/04 00:01:54;;;;;;;11.82;3.80;;;;;;;;;;4970368;28;20215;-71
2023/08/04 00:04:20;;;;;;;13.45;3.22;;;;;;;;;;4989315;28;20222;-71
2023/08/04 00:06:45;;;;;;;5.75;3.00;;;;;;;;;;4988068;28;20227;-71
2023/08/04 00:09:10;;;;;;;7.78;2.90;;;;;;;;;;4984664;28;21026;-71
2023/08/04 00:11:35;;;;;;;8.02;3.78;;;;;;;;;;4985279;28;20218;-71
2023/08/04 00:14:01;;;;;;;6.05;2.80;;;;;;;;;;4988531;28;20226;-71
2023/08/04 00:16:26;;;;;;;6.32;3.03;;;;;;;;;;4989364;28;20613;-71
2023/08/04 00:18:51;;;;;;;8.13;3.67;;;;;;;;;;4989054;28;20225;-71
2023/08/04 00:21:16;;;;;;;7.85;2.80;;;;;;;;;;4987715;28;20210;-71
2023/08/04 00:23:41;;;;;;;5.75;2.60;;;;;;;;;;4987897;28;20179;-71
2023/08/04 00:26:07;;;;;;;5.93;3.05;;;;;;;;;;4988933;28;20183;-71
2023/08/04 00:28:32;;;;;;;9.85;3.05;;;;;;;;;;4987455;28;20611;-71
2023/08/04 00:30:57;;;;;;;6.60;2.90;;;;;;;;;;4970780;28;20780;-71
2023/08/04 00:33:22;;;;;;;5.60;2.95;;;;;;;;;;4986734;28;20640;-71
2023/08/04 00:35:47;;;;;;;11.23;3.53;;;;;;;;;;4987544;28;20542;-71
2023/08/04 00:38:13;;;;;;;7.13;3.20;;;;;;;;;;4980772;28;20199;-71
2023/08/04 00:40:38;;;;;;;11.15;4.15;;;;;;;;;;4984806;28;20636;-71
2023/08/04 00:43:03;;;;;;;8.07;3.90;;;;;;;;;;4988954;28;20688;-71
2023/08/04 00:45:30;;;;;;;11.55;4.05;;;;;;;;;;4987390;28;20183;-72
2023/08/04 00:47:55;;;;;;;10.95;4.95;;;;;;;;;;4988371;28;20618;-71
2023/08/04 00:50:21;;;;;;;8.65;4.38;;;;;;;;;;4970408;28;20191;-71
2023/08/04 00:52:46;;;;;;;13.73;3.55;;;;;;;;;;4990878;28;20215;-71
2023/08/04 00:55:13;;;;;;;11.95;4.60;;;;;;;;;;4989045;28;20211;-71
2023/08/04 00:57:39;;;;;;;9.95;4.20;;;;;;;;;;4983240;28;20959;-71
2023/08/04 01:00:06;;;;;;;7.60;4.10;;;;;;;;;;4991830;28;20353;-71
2023/08/04 01:02:31;;;;;;;11.10;4.07;;;;;;;;;;4990681;28;20341;-71
2023/08/04 01:04:56;;;;;;;10.63;4.47;;;;;;;;;;4990068;28;20176;-71
2023/08/04 01:07:23;;;;;;;13.65;4.88;;;;;;;;;;4990789;28;20203;-71
2023/08/04 01:09:48;;;;;;;10.40;4.82;;;;;;;;;;4989307;28;20199;-71
2023/08/04 01:12:20;;;;;;;8.38;4.38;;;;;;;;;;4990255;28;20266;-70
2023/08/04 01:14:46;;;;;;;6.15;3.72;;;;;;;;;;4990441;28;20184;-71
2023/08/04 01:17:26;;;;;;;9.98;4.05;;;;;;;;;;4990070;28;20946;-71
2023/08/04 01:19:51;;;;;;;7.93;4.22;;;;;;;;;;4972739;28;20183;-70
2023/08/04 01:22:16;;;;;;;12.05;3.85;;;;;;;;;;4989146;28;20288;-70
2023/08/04 01:24:42;;;;;;;9.88;5.00;;;;;;;;;;4990420;28;20857;-71
2023/08/04 01:27:08;;;;;;;7.18;4.22;;;;;;;;;;4989423;28;20205;-71
2023/08/04 01:29:33;;;;;;;12.05;4.70;;;;;;;;;;4990467;28;20282;-71
2023/08/04 01:31:59;;;;;;;9.40;4.25;;;;;;;;;;4990094;28;20187;-71
2023/08/04 01:34:24;;;;;;;12.27;4.13;;;;;;;;;;4974887;28;20191;-71
2023/08/04 01:36:50;;;;;;;11.93;4.20;;;;;;;;;;4990106;28;20207;-71
2023/08/04 01:39:15;;;;;;;8.65;4.75;;;;;;;;;;4990035;28;20268;-71
2023/08/04 01:41:40;;;;;;;9.50;4.22;;;;;;;;;;4990166;28;20231;-71
2023/08/04 01:44:05;;;;;;;9.48;4.72;;;;;;;;;;4989776;28;20271;-71
2023/08/04 01:46:31;;;;;;;12.20;4.97;;;;;;;;;;4988890;28;20271;-71
2023/08/04 01:48:56;;;;;;;11.95;4.90;;;;;;;;;;4971010;28;20550;-71
2023/08/04 01:51:21;;;;;;;8.80;5.13;;;;;;;;;;4987476;28;21504;-71
2023/08/04 01:53:46;;;;;;;10.73;5.88;;;;;;;;;;4988865;28;20237;-71
2023/08/04 01:56:11;;;;;;;11.10;5.30;;;;;;;;;;4987499;28;20199;-71
2023/08/04 01:58:37;;;;;;;9.02;5.05;;;;;;;;;;4986584;28;20280;-71
2023/08/04 02:01:02;;;;;;;11.52;4.78;;;;;;;;;;4986451;28;20222;-72
2023/08/04 02:03:27;;;;;;;9.25;4.55;;;;;;;;;;4983515;28;20175;-72
2023/08/04 02:05:52;;;;;;;10.32;4.63;;;;;;;;;;4987825;28;20176;-72
2023/08/04 02:08:18;;;;;;;11.93;5.45;;;;;;;;;;4983419;28;20967;-72
2023/08/04 02:10:47;;;;;;;10.20;4.50;;;;;;;;;;4990171;28;20183;-72
2023/08/04 02:13:12;;;;;;;9.50;4.85;;;;;;;;;;4986047;28;20184;-72
2023/08/04 02:15:37;;;;;;;7.50;4.20;;;;;;;;;;4987905;28;20318;-71
2023/08/04 02:18:02;;;;;;;8.95;4.00;;;;;;;;;;4987040;28;20776;-72
2023/08/04 02:20:28;;;;;;;7.13;4.28;;;;;;;;;;4988185;28;20236;-72
2023/08/04 02:22:53;;;;;;;7.63;4.50;;;;;;;;;;4986223;28;20208;-71
2023/08/04 02:25:18;;;;;;;6.07;4.00;;;;;;;;;;4966342;28;20266;-72
2023/08/04 02:27:43;;;;;;;11.10;4.45;;;;;;;;;;5001066;23;20215;-68
2023/08/04 02:30:09;;;;;;;5.55;3.53;;;;;;;;;;5027806;28;20270;-66
2023/08/04 02:32:34;;;;;;;9.65;5.00;;;;;;;;;;5024779;28;20190;-66
2023/08/04 02:34:59;;;;;;;12.10;5.22;;;;;;;;;;5023244;28;20190;-65
2023/08/04 02:37:24;;;;;;;11.48;5.10;;;;;;;;;;5018733;28;20880;-67
2023/08/04 02:39:49;;;;;;;14.40;5.40;;;;;;;;;;5005719;28;20586;-67
2023/08/04 02:42:15;;;;;;;12.73;4.20;;;;;;;;;;5005432;28;20210;-67
2023/08/04 02:44:40;;;;;;;13.85;5.47;;;;;;;;;;5006854;28;20261;-67
2023/08/04 02:47:05;;;;;;;10.40;5.10;;;;;;;;;;5004097;28;20264;-66
2023/08/04 02:49:31;;;;;;;9.55;5.80;;;;;;;;;;5003964;28;20203;-68
2023/08/04 02:51:56;;;;;;;13.43;6.55;;;;;;;;;;5007615;28;20432;-67
2023/08/04 02:54:21;;;;;;;12.75;4.97;;;;;;;;;;5004972;28;20192;-67
2023/08/04 02:56:46;;;;;;;7.35;4.05;;;;;;;;;;5006841;28;20198;-67
2023/08/04 02:59:11;;;;;;;7.35;4.47;;;;;;;;;;5006095;28;20206;-67
2023/08/04 03:01:37;;;;;;;12.65;5.63;;;;;;;;;;5009979;28;20214;-68
2023/08/04 03:04:02;;;;;;;11.70;5.40;;;;;;;;;;5007882;28;20613;-68
2023/08/04 03:06:27;;;;;;;9.88;4.35;;;;;;;;;;5010366;28;20609;-68
2023/08/04 03:08:52;;;;;;;14.30;5.40;;;;;;;;;;5007941;28;20765;-66
2023/08/04 03:11:18;;;;;;;11.30;5.20;;;;;;;;;;5007189;28;21643;-68
2023/08/04 03:13:43;;;;;;;10.75;5.38;;;;;;;;;;5008544;28;20190;-68
2023/08/04 03:16:08;;;;;;;9.52;5.05;;;;;;;;;;5011111;28;20179;-67
2023/08/04 03:18:33;;;;;;;13.07;5.53;;;;;;;;;;4991422;28;21539;-67
2023/08/04 03:21:02;;;;;;;12.57;5.60;;;;;;;;;;5005603;28;20965;-68
2023/08/04 03:23:28;;;;;;;13.95;5.53;;;;;;;;;;5009129;28;20221;-68
2023/08/04 03:25:53;;;;;;;10.27;5.38;;;;;;;;;;5010990;28;20261;-68
2023/08/04 03:28:18;;;;;;;10.95;5.88;;;;;;;;;;5008660;28;20303;-68
2023/08/04 03:30:44;;;;;;;13.60;5.10;;;;;;;;;;5010061;28;20178;-68
2023/08/04 03:33:09;;;;;;;11.07;5.38;;;;;;;;;;5008891;28;20194;-67
2023/08/04 03:35:34;;;;;;;9.95;6.03;;;;;;;;;;5008525;28;20240;-67
2023/08/04 03:37:59;;;;;;;7.50;4.32;;;;;;;;;;5001558;28;20226;-67
2023/08/04 03:40:24;;;;;;;9.63;5.20;;;;;;;;;;5010023;28;20190;-67
2023/08/04 03:42:51;;;;;;;8.82;5.28;;;;;;;;;;5007739;28;20210;-68
2023/08/04 03:45:16;;;;;;;16.58;5.55;;;;;;;;;;5009390;28;20229;-68
2023/08/04 03:47:41;;;;;;;12.65;4.97;;;;;;;;;;5009565;28;20194;-68
2023/08/04 03:50:07;;;;;;;10.40;5.25;;;;;;;;;;5009913;28;20189;-67
2023/08/04 03:52:32;;;;;;;8.05;4.88;;;;;;;;;;5007971;28;20273;-66
2023/08/04 03:54:58;;;;;;;9.63;4.65;;;;;;;;;;5009154;28;20183;-68
2023/08/04 03:57:23;;;;;;;8.35;4.55;;;;;;;;;;5007739;28;20285;-68
2023/08/04 03:59:49;;;;;;;18.33;6.13;;;;;;;;;;5008714;28;20668;-67
2023/08/04 04:02:15;;;;;;;14.75;5.20;;;;;;;;;;5008229;28;20293;-67
2023/08/04 04:04:40;;;;;;;8.95;4.90;;;;;;;;;;5009125;28;20213;-67
2023/08/04 04:07:05;;;;;;;22.05;5.22;;;;;;;;;;5007012;28;20833;-67
2023/08/04 04:09:31;;;;;;;7.88;4.60;;;;;;;;;;5006742;28;20206;-67
2023/08/04 04:11:56;;;;;;;9.20;4.50;;;;;;;;;;5004535;28;20186;-67
2023/08/04 04:14:21;;;;;;;9.88;4.38;;;;;;;;;;5008140;28;20563;-66
2023/08/04 04:16:46;;;;;;;8.35;4.45;;;;;;;;;;5006744;28;20858;-65
2023/08/04 04:19:11;;;;;;;11.43;5.28;;;;;;;;;;5005356;28;20396;-66
2023/08/04 04:21:37;;;;;;;9.85;4.78;;;;;;;;;;5008665;28;20379;-67
2023/08/04 04:24:02;;;;;;;11.23;4.90;;;;;;;;;;5004652;28;20179;-66
2023/08/04 04:26:28;;;;;;;12.85;4.70;;;;;;;;;;5009139;28;20196;-67
2023/08/04 04:28:53;;;;;;;8.80;4.95;;;;;;;;;;5005035;28;20257;-67
2023/08/04 04:31:18;;;;;;;11.20;5.30;;;;;;;;;;5008222;28;20186;-66
2023/08/04 04:33:43;;;;;;;13.20;5.05;;;;;;;;;;5007369;28;20190;-67
2023/08/04 04:36:08;;;;;;;11.38;4.63;;;;;;;;;;5007635;28;20190;-67
2023/08/04 04:38:34;;;;;;;13.52;5.07;;;;;;;;;;4999330;28;20199;-67
2023/08/04 04:41:02;;;;;;;9.25;4.00;;;;;;;;;;5006799;28;20229;-67
2023/08/04 04:43:28;;;;;;;9.10;5.22;;;;;;;;;;5006254;28;20232;-67
2023/08/04 04:45:53;;;;;;;14.15;4.68;;;;;;;;;;5007845;28;20823;-67
2023/08/04 04:48:19;;;;;;;12.45;4.55;;;;;;;;;;5008918;28;20199;-67
2023/08/04 04:50:45;;;;;;;11.38;4.57;;;;;;;;;;5008558;28;20562;-67
2023/08/04 04:53:10;;;;;;;10.18;4.45;;;;;;;;;;5008265;28;20182;-66
2023/08/04 04:55:35;;;;;;;10.52;5.20;;;;;;;;;;5007348;28;20660;-66
2023/08/04 04:58:01;;;;;;;7.25;3.75;;;;;;;;;;5007688;28;20272;-66
2023/08/04 05:00:26;;;;;;;9.82;3.72;;;;;;;;;;5006634;28;20204;-67
2023/08/04 05:02:51;;;;;;;11.80;4.43;;;;;;;;;;5006191;28;20207;-67
2023/08/04 05:05:16;;;;;;;8.70;3.83;;;;;;;;;;5005476;28;20186;-66
2023/08/04 05:07:42;;;;;;;10.45;4.05;;;;;;;;;;5007358;28;20198;-67
2023/08/04 05:10:07;;;;;;;8.15;3.92;;;;;;;;;;5005681;28;20179;-67
2023/08/04 05:12:33;;;;;;;9.75;4.75;;;;;;;;;;5003991;28;20318;-67
2023/08/04 05:14:58;;;;;;;7.43;3.70;;;;;;;;;;5003972;28;20273;-67
2023/08/04 05:17:23;;;;;;;8.55;3.53;;;;;;;;;;5007802;28;20202;-67
2023/08/04 05:19:48;;;;;;;12.02;4.05;;;;;;;;;;5004837;28;20207;-66
2023/08/04 05:22:14;;;;;;;6.45;3.83;;;;;;;;;;5002383;28;20221;-67
2023/08/04 05:24:39;;;;;;;7.38;3.28;;;;;;;;;;5004133;28;20194;-67
2023/08/04 05:27:04;;;;;;;11.23;4.00;;;;;;;;;;5004578;28;20178;-67
2023/08/04 05:29:30;;;;;;;7.80;3.47;;;;;;;;;;5005471;28;20258;-68
2023/08/04 05:31:55;;;;;;;7.25;3.13;;;;;;;;;;5004586;28;20210;-67
2023/08/04 05:34:20;;;;;;;6.55;3.45;;;;;;;;;;5004914;28;20186;-67
2023/08/04 05:36:45;;;;;;;7.63;3.95;;;;;;;;;;4999306;28;20174;-67
2023/08/04 05:39:11;;;;;;;8.20;3.40;;;;;;;;;;5005781;28;20675;-67
2023/08/04 05:41:36;;;;;;;4.78;3.35;;;;;;;;;;5005183;28;20248;-67
2023/08/04 05:44:01;;;;;;;7.72;3.95;;;;;;;;;;5006689;28;20182;-67
2023/08/04 05:46:26;;;;;;;7.13;4.03;;;;;;;;;;5006335;28;20281;-67
2023/08/04 05:48:52;;;;;;;8.27;3.20;;;;;;;;;;5005252;28;20242;-68
2023/08/04 05:51:17;;;;;;;5.47;3.17;;;;;;;;;;5006416;28;20186;-66
2023/08/04 05:53:43;;;;;;;7.30;4.00;;;;;;;;;;5006298;28;20183;-66
2023/08/04 05:56:08;;;;;;;9.13;3.85;;;;;;;;;;5005322;28;20182;-67
2023/08/04 05:58:33;;;;;;;5.60;3.10;;;;;;;;;;5006770;28;20222;-67
2023/08/04 06:00:58;;;;;;;6.53;3.33;;;;;;;;;;5003291;28;20734;-67
2023/08/04 06:03:24;;;;;;;5.50;3.42;;;;;;;;;;5002339;28;20214;-66
2023/08/04 06:05:49;;;;;;;6.07;3.17;;;;;;;;;;5004251;28;20595;-67
2023/08/04 06:08:14;;;;;;;6.63;3.38;;;;;;;;;;5006836;28;20342;-67
2023/08/04 06:10:40;;;;;;;6.90;3.03;;;;;;;;;;5001985;28;20187;-66
2023/08/04 06:13:05;;;;;;;6.00;3.30;;;;;;;;;;5007934;28;20626;-66
2023/08/04 06:15:31;;;;;;;5.07;2.90;;;;;;;;;;4990146;28;20186;-65
2023/08/04 06:17:56;;;;;;;8.93;3.72;;;;;;;;;;4989889;28;20608;-65
2023/08/04 06:20:22;;;;;;;6.97;2.92;;;;;;;;;;4991927;28;21196;-66
2023/08/04 06:22:50;;;;;;;9.07;3.03;;;;;;;;;;4987403;28;20288;-66
2023/08/04 06:25:15;;;;;;;3.45;2.85;;;;;;;;;;4990112;28;20179;-66
2023/08/04 06:27:41;;;;;;;4.63;2.95;;;;;;;;;;4989969;28;20210;-66
2023/08/04 06:30:06;;;;;;;8.63;3.08;;;;;;;;;;4990564;28;20179;-67
2023/08/04 06:32:31;;;;;;;4.15;2.05;;;;;;;;;;4989445;28;20813;-65
2023/08/04 06:34:57;;;;;;;2.40;1.65;;;;;;;;;;4989217;28;20186;-66
2023/08/04 06:37:22;;;;;;;4.85;2.00;;;;;;;;;;4995328;28;20194;-66
2023/08/04 06:39:49;;;;;;;3.90;2.20;;;;;;;;;;4994333;28;20318;-66
2023/08/04 06:42:14;;;;;;;4.20;1.50;;;;;;;;;;4992607;28;20202;-67
2023/08/04 06:44:40;;;;;;;4.03;1.92;;;;;;;;;;4995410;28;20661;-66
2023/08/04 06:47:05;;;;;;;3.88;1.70;;;;;;;;;;4994514;28;20236;-67
2023/08/04 06:49:30;;;;;;;3.45;1.77;;;;;;;;;;4992531;28;20202;-67
2023/08/04 06:51:55;;;;;;;3.38;1.65;;;;;;;;;;4993318;28;20571;-67
2023/08/04 06:54:20;;;;;;;5.38;1.60;;;;;;;;;;4993872;28;20194;-66
2023/08/04 06:56:46;;;;;;;3.13;1.58;;;;;;;;;;4992314;28;20187;-68
2023/08/04 06:59:11;;;;;;;1.75;1.27;;;;;;;;;;4990735;28;20203;-68
2023/08/04 07:01:36;;;;;;;3.35;1.30;;;;;;;;;;4996846;28;20259;-67
2023/08/04 07:04:01;;;;;;;4.55;1.92;;;;;;;;;;4992861;28;20202;-67
2023/08/04 07:06:27;;;;;;;4.53;1.83;;;;;;;;;;4995586;28;20194;-68
2023/08/04 07:08:52;;;;;;;2.95;1.42;;;;;;;;;;4995294;28;20729;-67
2023/08/04 07:11:18;;;;;;;2.50;1.25;;;;;;;;;;4993584;28;20850;-67
2023/08/04 07:13:43;;;;;;;2.60;1.55;;;;;;;;;;4994410;28;21376;-66
2023/08/04 07:16:10;;;;;;;2.08;1.17;;;;;;;;;;4991907;28;20641;-68
2023/08/04 07:18:35;;;;;;;2.72;1.27;;;;;;;;;;4991917;28;20293;-67
2023/08/04 07:21:10;;;;;;;3.83;1.55;;;;;;;;;;4992312;28;20182;-66
2023/08/04 07:23:36;;;;;;;2.45;1.80;;;;;;;;;;4992462;28;20192;-68
2023/08/04 07:26:02;;;;;;;3.92;1.45;;;;;;;;;;4996153;28;20573;-66
2023/08/04 07:28:28;;;;;;;3.03;1.52;;;;;;;;;;4993638;28;20549;-66
2023/08/04 07:30:53;;;;;;;5.65;1.50;;;;;;;;;;4993302;28;20253;-67
2023/08/04 07:33:18;;;;;;;2.67;1.25;;;;;;;;;;4993062;28;20221;-66
2023/08/04 07:35:43;;;;;;;3.60;1.50;;;;;;;;;;4993907;28;20194;-66
2023/08/04 07:38:09;;;;;;;1.88;1.27;;;;;;;;;;4996182;28;20325;-66
2023/08/04 07:40:38;;;;;;;2.22;1.70;;;;;;;;;;4994422;28;20195;-67
2023/08/04 07:43:04;;;;;;;3.05;1.90;;;;;;;;;;4991930;28;20214;-67
2023/08/04 07:45:29;;;;;;;2.88;1.55;;;;;;;;;;4993367;28;20186;-66
2023/08/04 07:47:54;;;;;;;2.90;1.85;;;;;;;;;;4992884;28;20214;-67
2023/08/04 07:50:20;;;;;;;4.68;1.63;;;;;;;;;;4995571;28;20953;-67
2023/08/04 07:52:45;;;;;;;3.30;1.48;;;;;;;;;;4989729;28;20186;-66
2023/08/04 07:55:10;;;;;;;3.72;1.55;;;;;;;;;;4993074;28;20783;-67
2023/08/04 07:57:35;;;;;;;5.90;1.52;;;;;;;;;;4991088;28;20687;-67
2023/08/04 08:00:01;;;;;;;5.55;1.58;;;;;;;;;;4992769;28;20197;-67
2023/08/04 08:02:26;;;;;;;2.15;1.27;;;;;;;;;;4994198;28;21157;-67
2023/08/04 08:04:51;;;;;;;2.33;1.08;;;;;;;;;;4992143;28;20278;-67
2023/08/04 08:07:16;;;;;;;1.88;1.05;;;;;;;;;;4993126;28;20199;-67
2023/08/04 08:09:41;;;;;;;4.13;1.55;;;;;;;;;;4993746;28;20772;-67
2023/08/04 08:12:07;;;;;;;2.38;1.60;;;;;;;;;;4993537;28;20689;-67
2023/08/04 08:14:32;;;;;;;3.85;1.50;;;;;;;;;;4996627;28;20587;-67
2023/08/04 08:16:57;;;;;;;2.58;1.42;;;;;;;;;;4993361;28;20212;-67
2023/08/04 08:19:22;;;;;;;5.00;1.98;;;;;;;;;;4993054;28;20207;-65
2023/08/04 08:21:48;;;;;;;3.72;1.70;;;;;;;;;;4992034;28;20206;-67
2023/08/04 08:24:13;;;;;;;2.53;1.15;;;;;;;;;;4992219;28;20185;-66
2023/08/04 08:26:38;;;;;;;3.17;1.60;;;;;;;;;;4991991;28;20211;-66
2023/08/04 08:29:04;;;;;;;5.70;1.45;;;;;;;;;;5001171;22;20231;-70
2023/08/04 08:31:29;;;;;;;4.28;1.15;;;;;;;;;;4972006;28;20206;-70
2023/08/04 08:33:55;;;;;;;4.15;1.20;;;;;;;;;;4974923;28;20653;-71
2023/08/04 08:36:20;;;;;;;4.50;1.30;;;;;;;;;;4968165;28;20644;-71
2023/08/04 08:38:45;;;;;;;5.38;1.80;;;;;;;;;;4972091;28;20874;-71
2023/08/04 08:41:13;;;;;;;5.43;1.35;;;;;;;;;;4972750;28;20183;-71
2023/08/04 08:43:38;;;;;;;2.13;1.10;;;;;;;;;;4975292;28;20627;-71
2023/08/04 08:46:03;;;;;;;6.15;1.50;;;;;;;;;;4969794;28;20245;-71
2023/08/04 08:48:32;;;;;;;2.67;1.25;;;;;;;;;;4971017;28;20747;-72
2023/08/04 08:51:05;;;;;;;5.45;1.73;;;;;;;;;;4971460;28;20195;-71
2023/08/04 08:53:31;;;;;;;1.88;1.20;;;;;;;;;;4970886;28;20965;-71
2023/08/04 08:55:59;;;;;;;4.93;1.75;;;;;;;;;;4971459;28;20191;-72
2023/08/04 08:58:25;;;;;;;3.47;0.90;;;;;;;;;;4969746;28;20211;-72
2023/08/04 09:00:51;;;;;;;9.05;2.03;;;;;;;;;;4971408;28;20873;-71
2023/08/04 09:03:17;;;;;;;5.72;1.30;;;;;;;;;;4973237;28;20223;-70
2023/08/04 09:05:42;;;;;;;4.03;1.30;;;;;;;;;;4968256;28;20745;-70
2023/08/04 09:08:07;;;;;;;3.70;1.07;;;;;;;;;;4972722;28;20210;-71
2023/08/04 09:10:34;;;;;;;3.15;1.48;;;;;;;;;;4970115;28;20510;-70
2023/08/04 09:13:00;;;;;;;2.22;1.42;;;;;;;;;;4950423;28;20194;-71
2023/08/04 09:15:33;;;;;;;4.88;1.15;;;;;;;;;;4969593;28;20179;-71
2023/08/04 09:17:58;;;;;;;4.95;1.63;;;;;;;;;;4968763;28;20281;-70
2023/08/04 09:20:28;;;;;;;2.27;1.10;;;;;;;;;;4970728;28;20254;-72
2023/08/04 09:22:53;;;;;;;3.65;1.33;;;;;;;;;;4969864;28;21075;-71
2023/08/04 09:25:18;;;;;;;3.95;0.95;;;;;;;;;;4971965;28;20222;-71
2023/08/04 09:27:49;;;;;;;3.97;1.27;;;;;;;;;;4971377;28;20667;-70
2023/08/04 09:30:14;;;;;;;2.13;1.00;;;;;;;;;;4970938;28;20835;-71
2023/08/04 09:32:41;;;;;;;4.10;1.25;;;;;;;;;;4952610;28;20868;-71
2023/08/04 09:35:07;;;;;;;3.95;1.42;;;;;;;;;;4952239;28;20190;-71
2023/08/04 09:37:33;;;;;;;5.88;1.13;;;;;;;;;;4951728;28;20245;-70
2023/08/04 09:39:58;;;;;;;4.65;1.15;;;;;;;;;;4970238;28;20214;-71
2023/08/04 09:42:24;;;;;;;6.07;1.55;;;;;;;;;;4970865;28;20207;-72
2023/08/04 09:44:50;;;;;;;3.55;1.17;;;;;;;;;;4964872;28;20672;-71
2023/08/04 09:47:15;;;;;;;3.45;1.17;;;;;;;;;;4968875;28;20566;-71
2023/08/04 09:49:40;;;;;;;3.67;0.83;;;;;;;;;;4984893;28;20200;-71
2023/08/04 09:52:06;;;;;;;4.70;1.23;;;;;;;;;;4984969;28;20425;-71
2023/08/04 09:54:31;;;;;;;2.38;0.60;;;;;;;;;;4986284;28;20431;-71
2023/08/04 09:56:56;;;;;;;3.15;1.02;;;;;;;;;;4983524;28;21145;-71
2023/08/04 09:59:22;;;;;;;3.20;0.90;;;;;;;;;;4986403;28;20208;-71
2023/08/04 10:01:47;;;;;;;1.95;0.82;;;;;;;;;;4987918;28;20457;-71
2023/08/04 10:04:13;;;;;;;4.40;1.63;;;;;;;;;;4987041;28;20183;-70
2023/08/04 10:06:39;;;;;;;7.32;1.63;;;;;;;;;;4989762;28;20180;-70
2023/08/04 10:09:04;;;;;;;4.38;1.50;;;;;;;;;;4971030;28;20937;-70
2023/08/04 10:11:29;;;;;;;2.50;1.00;;;;;;;;;;4991055;28;20238;-71
2023/08/04 10:13:56;;;;;;;2.28;0.77;;;;;;;;;;4975233;28;20190;-71
2023/08/04 10:16:40;;;;;;;4.07;1.15;;;;;;;;;;4991316;28;20182;-72
2023/08/04 10:19:06;;;;;;;2.83;0.82;;;;;;;;;;4992283;28;20718;-71
2023/08/04 10:21:34;;;;;;;2.40;0.52;;;;;;;;;;4991556;28;20203;-71
2023/08/04 10:23:59;;;;;;;5.07;1.73;;;;;;;;;;4972583;28;20190;-71
2023/08/04 10:26:24;;;;;;;1.25;0.90;;;;;;;;;;4972515;28;20187;-71
2023/08/04 10:29:05;;;;;;;1.83;0.70;;;;;;;;;;4991855;28;20242;-72
2023/08/04 10:31:46;;;;;;;1.40;0.73;;;;;;;;;;4991295;28;21115;-71
2023/08/04 10:34:18;;;;;;;3.13;0.63;;;;;;;;;;4992014;28;20183;-71
2023/08/04 10:36:52;;;;;;;2.78;0.55;;;;;;;;;;4991834;28;20187;-72
2023/08/04 10:39:28;;;;;;;1.60;0.82;;;;;;;;;;4975180;28;20194;-71
2023/08/04 10:41:53;;;;;;;0.98;0.40;;;;;;;;;;4991917;28;20267;-71
2023/08/04 10:44:19;;;;;;;3.97;0.40;;;;;;;;;;4968883;28;20302;-72
2023/08/04 10:46:47;;;;;;;1.40;0.77;;;;;;;;;;4991274;28;20183;-71
2023/08/04 10:49:12;;;;;;;1.80;0.50;;;;;;;;;;4989521;28;20685;-71
2023/08/04 10:51:37;;;;;;;3.63;1.08;;;;;;;;;;4989219;28;20191;-71
2023/08/04 10:54:03;;;;;;;1.90;0.52;;;;;;;;;;4993030;28;20711;-71
2023/08/04 10:56:28;;;;;;;2.42;0.70;;;;;;;;;;4989206;28;20237;-71
2023/08/04 10:58:53;;;;;;;0.60;0.43;;;;;;;;;;4984431;28;20330;-70
2023/08/04 11:01:18;;;;;;;1.35;0.63;;;;;;;;;;4975475;28;20436;-71
2023/08/04 11:03:47;;;;;;;0.75;0.38;;;;;;;;;;4975345;28;20191;-71
2023/08/04 11:06:12;;;;;;;1.20;0.57;;;;;;;;;;4975154;28;20225;-71
2023/08/04 11:08:37;;;;;;;1.73;0.63;;;;;;;;;;4973699;28;20207;-72
2023/08/04 11:11:03;;;;;;;1.70;0.98;;;;;;;;;;4973822;28;20711;-72
2023/08/04 11:13:28;;;;;;;0.98;0.40;;;;;;;;;;4978473;28;20195;-72
2023/08/04 11:15:53;;;;;;;1.47;0.80;;;;;;;;;;4984465;28;20215;-72
2023/08/04 11:18:29;;;;;;;1.13;0.60;;;;;;;;;;4972790;28;21204;-72
2023/08/04 11:20:59;;;;;;;1.80;0.75;;;;;;;;;;4971111;28;20230;-72
2023/08/04 11:23:26;;;;;;;2.20;0.60;;;;;;;;;;4972752;28;20707;-72
2023/08/04 11:25:51;;;;;;;1.45;0.68;;;;;;;;;;4973356;28;20254;-72
2023/08/04 11:28:18;;;;;;;0.90;0.38;;;;;;;;;;4972006;28;20692;-72
2023/08/04 11:30:43;;;;;;;2.35;1.10;;;;;;;;;;4973109;28;20191;-72
2023/08/04 11:33:08;;;;;;;0.50;0.32;;;;;;;;;;4972663;28;20226;-72
2023/08/04 11:35:33;;;;;;;1.48;0.30;;;;;;;;;;4955866;28;20192;-72
2023/08/04 11:37:59;;;;;;;1.42;0.63;;;;;;;;;;4974849;28;20815;-71
2023/08/04 11:40:25;;;;;;;0.85;0.43;;;;;;;;;;4973060;28;20725;-71
2023/08/04 11:42:51;;;;;;;0.60;0.35;;;;;;;;;;4974269;28;20855;-72
2023/08/04 11:45:16;;;;;;;3.80;0.60;;;;;;;;;;4977424;28;20693;-71
2023/08/04 11:47:41;;;;;;;1.02;0.50;;;;;;;;;;4974731;28;20183;-72
2023/08/04 11:50:07;;;;;;;1.85;0.57;;;;;;;;;;4955232;28;20732;-72
2023/08/04 11:52:37;;;;;;;1.63;0.40;;;;;;;;;;4973260;28;20290;-71
2023/08/04 11:55:03;;;;;;;1.08;0.55;;;;;;;;;;4974505;28;20593;-72
2023/08/04 11:57:28;;;;;;;1.48;0.40;;;;;;;;;;4971545;28;20187;-71
2023/08/04 11:59:54;;;;;;;3.60;0.65;;;;;;;;;;4972301;28;20269;-71
2023/08/04 12:02:19;;;;;;;1.75;0.60;;;;;;;;;;4977182;28;20518;-71
2023/08/04 12:04:44;;;;;;;2.47;0.57;;;;;;;;;;4973748;28;20194;-71
2023/08/04 12:07:10;;;;;;;1.00;0.40;;;;;;;;;;4977116;28;20389;-72
2023/08/04 12:09:36;;;;;;;1.75;0.50;;;;;;;;;;4962671;28;20238;-71
2023/08/04 12:12:02;;;;;;;1.60;0.40;;;;;;;;;;4972947;28;20206;-71
2023/08/04 12:14:28;;;;;;;0.70;0.50;;;;;;;;;;4973747;28;21008;-71
2023/08/04 12:16:53;;;;;;;0.98;0.30;;;;;;;;;;4971913;28;20989;-71
2023/08/04 12:19:22;;;;;;;0.93;0.47;;;;;;;;;;4955274;28;20866;-71
2023/08/04 12:21:48;;;;;;;1.10;0.40;;;;;;;;;;4984559;28;20777;-71
2023/08/04 12:24:14;;;;;;;3.40;0.52;;;;;;;;;;4977901;28;20186;-71
2023/08/04 12:26:39;;;;;;;1.30;0.60;;;;;;;;;;4973246;28;20211;-71
2023/08/04 12:29:05;;;;;;;1.55;0.57;;;;;;;;;;4953399;28;20945;-71
2023/08/04 12:31:30;;;;;;;0.98;0.40;;;;;;;;;;4971592;28;20183;-71
2023/08/04 12:33:55;;;;;;;8.82;1.05;;;;;;;;;;4977776;28;20579;-71
2023/08/04 12:36:20;;;;;;;2.95;0.82;;;;;;;;;;4975406;28;20179;-72
2023/08/04 12:38:46;;;;;;;4.60;1.27;;;;;;;;;;4972286;28;20203;-72
2023/08/04 12:41:11;;;;;;;4.15;0.85;;;;;;;;;;4974612;28;20179;-72
2023/08/04 12:43:37;;;;;;;3.35;0.45;;;;;;;;;;4973535;28;20674;-72
2023/08/04 12:46:02;;;;;;;2.92;0.75;;;;;;;;;;4970692;28;21276;-72
2023/08/04 12:48:28;;;;;;;2.47;0.43;;;;;;;;;;4973396;28;20199;-71
2023/08/04 12:50:53;;;;;;;2.25;0.60;;;;;;;;;;4981158;28;20313;-72
2023/08/04 12:53:18;;;;;;;17.83;1.80;;;;;;;;;;4964216;28;20256;-72
2023/08/04 12:55:44;;;;;;;7.32;1.60;;;;;;;;;;4982292;28;20311;-72
2023/08/04 12:58:09;;;;;;;4.05;0.70;;;;;;;;;;4982977;28;20207;-71
2023/08/04 13:00:34;;;;;;;1.50;0.68;;;;;;;;;;4980735;28;20197;-71
2023/08/04 13:02:59;;;;;;;0.88;0.40;;;;;;;;;;4985486;28;20203;-72
2023/08/04 13:05:25;;;;;;;3.85;1.85;;;;;;;;;;4962178;28;20187;-72
2023/08/04 13:07:50;;;;;;;4.75;0.88;;;;;;;;;;4979963;28;20565;-72
2023/08/04 13:10:15;;;;;;;2.97;0.70;;;;;;;;;;4979992;28;20273;-72
2023/08/04 13:12:40;;;;;;;4.60;1.10;;;;;;;;;;4960243;28;20191;-72
2023/08/04 13:15:06;;;;;;;5.50;1.00;;;;;;;;;;4977246;28;20774;-73
2023/08/04 13:17:31;;;;;;;2.92;0.80;;;;;;;;;;4981907;28;20905;-73
2023/08/04 13:19:56;;;;;;;2.72;0.75;;;;;;;;;;4975581;28;20203;-72
2023/08/04 13:22:22;;;;;;;5.60;0.90;;;;;;;;;;4957867;28;20208;-72
2023/08/04 13:24:47;;;;;;;2.00;0.50;;;;;;;;;;4972915;28;20210;-72
2023/08/04 13:27:12;;;;;;;6.70;1.05;;;;;;;;;;4973078;28;20192;-72
2023/08/04 13:29:38;;;;;;;11.20;1.63;;;;;;;;;;4956453;28;20216;-72
2023/08/04 13:32:03;;;;;;;1.75;0.73;;;;;;;;;;4955276;28;20229;-72
2023/08/04 13:34:28;;;;;;;2.03;0.70;;;;;;;;;;4954004;28;20602;-72
2023/08/04 13:36:54;;;;;;;1.27;0.60;;;;;;;;;;4972740;28;20194;-72
2023/08/04 13:39:19;;;;;;;3.33;0.57;;;;;;;;;;4975180;28;20212;-72
2023/08/04 13:41:44;;;;;;;2.80;0.95;;;;;;;;;;4971985;28;20249;-70
2023/08/04 13:44:09;;;;;;;1.23;0.47;;;;;;;;;;4972650;28;20261;-71
2023/08/04 13:46:35;;;;;;;1.13;0.40;;;;;;;;;;4970039;28;20225;-71
2023/08/04 13:49:01;;;;;;;1.02;0.60;;;;;;;;;;4972960;28;20204;-72
2023/08/04 13:51:26;;;;;;;0.93;0.55;;;;;;;;;;4971930;28;21068;-72
2023/08/04 13:53:51;;;;;;;2.07;0.70;;;;;;;;;;4970876;28;21013;-71
2023/08/04 13:56:16;;;;;;;3.30;0.70;;;;;;;;;;4973465;28;20996;-72
2023/08/04 13:58:41;;;;;;;1.63;1.02;;;;;;;;;;4974157;28;20685;-72
2023/08/04 14:01:07;;;;;;;3.90;1.00;;;;;;;;;;4957193;28;20742;-72
2023/08/04 14:03:32;;;;;;;1.55;0.80;;;;;;;;;;4957025;28;20624;-72
2023/08/04 14:06:01;;;;;;;2.03;0.90;;;;;;;;;;4970082;28;20233;-72
2023/08/04 14:08:27;;;;;;;1.30;0.60;;;;;;;;;;4953484;28;20862;-71
2023/08/04 14:10:52;;;;;;;2.13;0.85;;;;;;;;;;4969343;28;20175;-71
2023/08/04 14:13:18;;;;;;;3.35;0.80;;;;;;;;;;4975497;28;21798;-72
2023/08/04 14:15:43;;;;;;;1.45;0.52;;;;;;;;;;4972776;28;20237;-71
2023/08/04 14:18:08;;;;;;;0.83;0.60;;;;;;;;;;4972140;28;21047;-73
2023/08/04 14:20:34;;;;;;;1.97;0.70;;;;;;;;;;4972420;28;20820;-72
2023/08/04 14:22:59;;;;;;;1.35;0.60;;;;;;;;;;4972478;28;20958;-71
2023/08/04 14:25:25;;;;;;;4.50;0.85;;;;;;;;;;4956091;28;20784;-71
2023/08/04 14:27:50;;;;;;;1.90;0.57;;;;;;;;;;4975125;28;20262;-71
2023/08/04 14:30:15;;;;;;;1.17;0.73;;;;;;;;;;4994612;23;20667;-66
2023/08/04 14:32:41;;;;;;;1.23;0.70;;;;;;;;;;4953645;28;20425;-66